sensor_id;sensor_type;location;lat;lon;timestamp;pressure;altitude;pressure_sealevel;temperature;humidity
7532;BME280;3807;49.030;8.714;2022-09-09T00:04:17;98898.31;;;20.58;54.78
7532;BME280;3807;49.030;8.714;2022-09-09T00:06:50;98901.81;;;20.68;54.29
7532;BME280;3807;49.030;8.714;2022-09-09T00:09:21;98895.03;;;20.77;54.25
7532;BME280;3807;49.030;8.714;2022-09-09T00:11:55;98893.84;;;20.81;54.02
7532;BME280;3807;49.030;8.714;2022-09-09T00:17:06;98894.16;;;20.67;54.50
7532;BME280;3807;49.030;8.714;2022-09-09T00:19:51;98907.09;;;20.67;54.51
7532;BME280;3807;49.030;8.714;2022-09-09T00:22:22;98916.25;;;20.71;54.35
7532;BME280;3807;49.030;8.714;2022-09-09T00:24:56;98901.91;;;20.67;54.64
7532;BME280;3807;49.030;8.714;2022-09-09T00:27:32;98904.00;;;20.73;54.37
7532;BME280;3807;49.030;8.714;2022-09-09T00:30:15;98892.66;;;20.64;54.58
7532;BME280;3807;49.030;8.714;2022-09-09T00:32:48;98890.00;;;20.76;54.18
7532;BME280;3807;49.030;8.714;2022-09-09T00:37:10;98891.34;;;21.22;53.28
7532;BME280;3807;49.030;8.714;2022-09-09T00:39:41;98891.34;;;21.22;53.28
7532;BME280;3807;49.030;8.714;2022-09-09T00:42:58;98892.28;;;20.69;54.48
7532;BME280;3807;49.030;8.714;2022-09-09T00:45:45;98896.37;;;20.72;54.11
7532;BME280;3807;49.030;8.714;2022-09-09T00:48:10;98895.81;;;20.68;54.48
7532;BME280;3807;49.030;8.714;2022-09-09T00:50:47;98896.41;;;20.60;54.56
7532;BME280;3807;49.030;8.714;2022-09-09T00:54:04;98908.38;;;20.73;54.34
7532;BME280;3807;49.030;8.714;2022-09-09T00:56:28;98899.31;;;20.67;54.67
7532;BME280;3807;49.030;8.714;2022-09-09T00:59:16;98894.16;;;20.67;54.31
7532;BME280;3807;49.030;8.714;2022-09-09T01:01:48;98893.00;;;20.60;54.60
7532;BME280;3807;49.030;8.714;2022-09-09T01:04:21;98899.84;;;20.61;54.70
7532;BME280;3807;49.030;8.714;2022-09-09T01:06:59;98899.47;;;20.65;54.47
7532;BME280;3807;49.030;8.714;2022-09-09T01:09:32;98893.59;;;20.63;54.48
7532;BME280;3807;49.030;8.714;2022-09-09T01:12:23;98898.91;;;20.62;54.36
7532;BME280;3807;49.030;8.714;2022-09-09T01:14:52;98899.56;;;20.64;54.67
7532;BME280;3807;49.030;8.714;2022-09-09T01:17:29;98898.50;;;20.66;54.64
7532;BME280;3807;49.030;8.714;2022-09-09T01:20:03;98898.19;;;20.60;54.74
7532;BME280;3807;49.030;8.714;2022-09-09T01:28:29;98907.56;;;20.40;55.44
7532;BME280;3807;49.030;8.714;2022-09-09T01:30:57;98909.25;;;20.30;55.40
7532;BME280;3807;49.030;8.714;2022-09-09T01:33:24;98923.19;;;20.38;55.51
7532;BME280;3807;49.030;8.714;2022-09-09T01:35:56;98914.66;;;20.27;55.73
7532;BME280;3807;49.030;8.714;2022-09-09T01:38:25;98918.66;;;20.19;55.95
7532;BME280;3807;49.030;8.714;2022-09-09T01:40:51;98916.97;;;19.86;56.98
7532;BME280;3807;49.030;8.714;2022-09-09T01:43:20;98909.09;;;19.77;57.40
7532;BME280;3807;49.030;8.714;2022-09-09T01:45:49;98912.38;;;19.90;57.14
7532;BME280;3807;49.030;8.714;2022-09-09T01:48:17;98913.00;;;19.82;56.85
7532;BME280;3807;49.030;8.714;2022-09-09T01:50:43;98918.75;;;19.74;57.60
7532;BME280;3807;49.030;8.714;2022-09-09T01:53:09;98916.78;;;19.67;58.06
7532;BME280;3807;49.030;8.714;2022-09-09T01:55:40;98917.31;;;19.93;56.53
7532;BME280;3807;49.030;8.714;2022-09-09T02:00:44;98912.28;;;19.91;57.36
7532;BME280;3807;49.030;8.714;2022-09-09T02:05:56;98908.28;;;19.54;58.40
7532;BME280;3807;49.030;8.714;2022-09-09T02:08:47;98914.28;;;19.43;59.56
7532;BME280;3807;49.030;8.714;2022-09-09T02:11:19;98912.88;;;19.50;59.05
7532;BME280;3807;49.030;8.714;2022-09-09T02:13:47;98915.34;;;19.29;60.43
7532;BME280;3807;49.030;8.714;2022-09-09T02:16:27;98911.69;;;19.43;59.75
7532;BME280;3807;49.030;8.714;2022-09-09T02:19:15;98905.00;;;19.51;60.10
7532;BME280;3807;49.030;8.714;2022-09-09T02:21:50;98903.34;;;19.73;59.04
7532;BME280;3807;49.030;8.714;2022-09-09T02:24:16;98893.03;;;19.84;58.12
7532;BME280;3807;49.030;8.714;2022-09-09T02:26:44;98897.94;;;19.76;58.43
7532;BME280;3807;49.030;8.714;2022-09-09T02:29:19;98886.19;;;19.94;57.58
7532;BME280;3807;49.030;8.714;2022-09-09T02:31:49;98885.84;;;19.88;57.87
7532;BME280;3807;49.030;8.714;2022-09-09T02:34:16;98897.94;;;19.98;57.37
7532;BME280;3807;49.030;8.714;2022-09-09T02:36:43;98887.78;;;20.07;57.13
7532;BME280;3807;49.030;8.714;2022-09-09T02:39:11;98889.34;;;19.98;57.42
7532;BME280;3807;49.030;8.714;2022-09-09T02:41:39;98886.63;;;19.99;57.19
7532;BME280;3807;49.030;8.714;2022-09-09T02:44:13;98887.34;;;20.02;57.32
7532;BME280;3807;49.030;8.714;2022-09-09T02:50:04;98885.12;;;19.86;57.76
7532;BME280;3807;49.030;8.714;2022-09-09T02:55:38;98864.09;;;20.02;57.11
7532;BME280;3807;49.030;8.714;2022-09-09T02:58:07;98865.00;;;20.01;56.99
7532;BME280;3807;49.030;8.714;2022-09-09T03:00:35;98863.19;;;19.91;57.29
7532;BME280;3807;49.030;8.714;2022-09-09T03:03:04;98864.31;;;19.98;57.13
7532;BME280;3807;49.030;8.714;2022-09-09T03:05:30;98869.25;;;20.02;57.08
7532;BME280;3807;49.030;8.714;2022-09-09T03:07:55;98867.13;;;20.07;56.87
7532;BME280;3807;49.030;8.714;2022-09-09T03:10:20;98877.12;;;20.00;57.07
7532;BME280;3807;49.030;8.714;2022-09-09T03:12:46;98872.66;;;19.91;57.44
7532;BME280;3807;49.030;8.714;2022-09-09T03:15:11;98879.03;;;19.98;57.10
7532;BME280;3807;49.030;8.714;2022-09-09T03:17:37;98879.31;;;20.05;56.94
7532;BME280;3807;49.030;8.714;2022-09-09T03:20:03;98881.72;;;19.96;57.11
7532;BME280;3807;49.030;8.714;2022-09-09T03:22:29;98880.53;;;20.01;57.09
7532;BME280;3807;49.030;8.714;2022-09-09T03:24:54;98884.44;;;19.95;57.21
7532;BME280;3807;49.030;8.714;2022-09-09T03:27:20;98883.13;;;19.89;57.29
7532;BME280;3807;49.030;8.714;2022-09-09T03:29:46;98881.75;;;19.85;57.48
7532;BME280;3807;49.030;8.714;2022-09-09T03:32:11;98872.59;;;19.81;57.45
7532;BME280;3807;49.030;8.714;2022-09-09T03:34:37;98875.63;;;19.86;57.48
7532;BME280;3807;49.030;8.714;2022-09-09T03:37:05;98880.94;;;19.73;57.81
7532;BME280;3807;49.030;8.714;2022-09-09T03:39:31;98878.34;;;19.85;57.42
7532;BME280;3807;49.030;8.714;2022-09-09T03:41:56;98876.94;;;19.69;57.79
7532;BME280;3807;49.030;8.714;2022-09-09T03:44:22;98879.41;;;19.82;57.57
7532;BME280;3807;49.030;8.714;2022-09-09T03:46:47;98876.09;;;19.80;57.60
7532;BME280;3807;49.030;8.714;2022-09-09T03:49:13;98875.53;;;19.65;58.16
7532;BME280;3807;49.030;8.714;2022-09-09T03:51:38;98879.41;;;19.82;57.60
7532;BME280;3807;49.030;8.714;2022-09-09T03:54:04;98875.16;;;19.59;59.31
7532;BME280;3807;49.030;8.714;2022-09-09T03:56:33;98884.91;;;19.55;58.33
7532;BME280;3807;49.030;8.714;2022-09-09T03:58:58;98876.47;;;19.75;57.83
7532;BME280;3807;49.030;8.714;2022-09-09T04:01:24;98880.81;;;19.75;57.91
7532;BME280;3807;49.030;8.714;2022-09-09T04:03:49;98876.94;;;19.69;58.03
7532;BME280;3807;49.030;8.714;2022-09-09T04:06:15;98887.03;;;19.72;57.92
7532;BME280;3807;49.030;8.714;2022-09-09T04:08:41;98881.78;;;19.74;57.79
7532;BME280;3807;49.030;8.714;2022-09-09T04:11:07;98889.28;;;19.77;57.79
7532;BME280;3807;49.030;8.714;2022-09-09T04:13:34;98884.44;;;19.61;58.24
7532;BME280;3807;49.030;8.714;2022-09-09T04:16:01;98886.94;;;19.63;58.25
7532;BME280;3807;49.030;8.714;2022-09-09T04:18:27;98880.47;;;19.57;58.36
7532;BME280;3807;49.030;8.714;2022-09-09T04:20:56;98882.94;;;19.70;58.05
7532;BME280;3807;49.030;8.714;2022-09-09T04:23:23;98890.44;;;19.62;58.24
7532;BME280;3807;49.030;8.714;2022-09-09T04:25:51;98894.56;;;19.53;58.44
7532;BME280;3807;49.030;8.714;2022-09-09T04:28:18;98891.84;;;19.55;58.38
7532;BME280;3807;49.030;8.714;2022-09-09T04:30:45;98900.31;;;19.57;58.32
7532;BME280;3807;49.030;8.714;2022-09-09T04:33:12;98903.59;;;19.47;58.62
7532;BME280;3807;49.030;8.714;2022-09-09T04:35:37;98903.34;;;19.50;58.66
7532;BME280;3807;49.030;8.714;2022-09-09T04:38:04;98906.66;;;19.52;58.47
7532;BME280;3807;49.030;8.714;2022-09-09T04:40:30;98909.81;;;19.45;58.74
7532;BME280;3807;49.030;8.714;2022-09-09T04:42:59;98907.34;;;19.43;58.89
7532;BME280;3807;49.030;8.714;2022-09-09T04:45:24;98916.50;;;19.36;59.07
7532;BME280;3807;49.030;8.714;2022-09-09T04:47:51;98911.81;;;19.30;59.26
7532;BME280;3807;49.030;8.714;2022-09-09T04:50:16;98920.97;;;19.34;59.11
7532;BME280;3807;49.030;8.714;2022-09-09T04:52:42;98916.06;;;19.42;58.83
7532;BME280;3807;49.030;8.714;2022-09-09T04:55:07;98916.84;;;19.20;59.51
7532;BME280;3807;49.030;8.714;2022-09-09T04:57:34;98922.03;;;19.32;59.21
7532;BME280;3807;49.030;8.714;2022-09-09T04:59:59;98921.31;;;19.30;59.27
7532;BME280;3807;49.030;8.714;2022-09-09T05:02:26;98914.62;;;19.38;58.96
7532;BME280;3807;49.030;8.714;2022-09-09T05:04:51;98924.25;;;19.36;59.11
7532;BME280;3807;49.030;8.714;2022-09-09T05:07:17;98927.37;;;19.17;59.58
7532;BME280;3807;49.030;8.714;2022-09-09T05:09:42;98931.50;;;19.20;59.47
7532;BME280;3807;49.030;8.714;2022-09-09T05:12:08;98928.81;;;19.21;59.52
7532;BME280;3807;49.030;8.714;2022-09-09T05:14:33;98936.66;;;19.20;59.55
7532;BME280;3807;49.030;8.714;2022-09-09T05:17:00;98933.28;;;19.19;59.42
7532;BME280;3807;49.030;8.714;2022-09-09T05:19:25;98939.63;;;19.26;59.32
7532;BME280;3807;49.030;8.714;2022-09-09T05:21:50;98934.31;;;19.17;59.63
7532;BME280;3807;49.030;8.714;2022-09-09T05:24:16;98941.59;;;19.23;59.36
7532;BME280;3807;49.030;8.714;2022-09-09T05:26:42;98934.31;;;19.28;59.01
7532;BME280;3807;49.030;8.714;2022-09-09T05:29:08;98941.25;;;19.27;59.01
7532;BME280;3807;49.030;8.714;2022-09-09T05:31:34;98944.31;;;19.21;59.25
7532;BME280;3807;49.030;8.714;2022-09-09T05:33:59;98940.06;;;19.20;59.27
7532;BME280;3807;49.030;8.714;2022-09-09T05:36:25;98949.94;;;19.15;59.32
7532;BME280;3807;49.030;8.714;2022-09-09T05:38:50;98947.00;;;19.20;59.30
7532;BME280;3807;49.030;8.714;2022-09-09T05:41:16;98945.34;;;19.19;59.30
7532;BME280;3807;49.030;8.714;2022-09-09T05:43:42;98947.66;;;18.99;59.83
7532;BME280;3807;49.030;8.714;2022-09-09T05:46:20;98945.00;;;19.12;59.49
7532;BME280;3807;49.030;8.714;2022-09-09T05:48:47;98956.56;;;18.95;60.19
7532;BME280;3807;49.030;8.714;2022-09-09T05:51:15;98951.16;;;18.87;60.47
7532;BME280;3807;49.030;8.714;2022-09-09T05:53:41;98957.59;;;18.93;60.33
7532;BME280;3807;49.030;8.714;2022-09-09T05:56:18;98950.34;;;18.87;60.20
7532;BME280;3807;49.030;8.714;2022-09-09T05:58:44;98954.22;;;19.03;59.47
7532;BME280;3807;49.030;8.714;2022-09-09T06:01:16;98961.03;;;18.93;59.88
7532;BME280;3807;49.030;8.714;2022-09-09T06:03:43;98946.75;;;19.00;59.52
7532;BME280;3807;49.030;8.714;2022-09-09T06:06:17;98952.72;;;19.01;59.46
7532;BME280;3807;49.030;8.714;2022-09-09T06:08:45;98955.19;;;19.02;59.32
7532;BME280;3807;49.030;8.714;2022-09-09T06:11:17;98962.31;;;18.99;59.57
7532;BME280;3807;49.030;8.714;2022-09-09T06:13:43;98961.97;;;19.03;59.22
7532;BME280;3807;49.030;8.714;2022-09-09T06:16:13;98960.09;;;18.94;59.86
7532;BME280;3807;49.030;8.714;2022-09-09T06:18:40;98952.34;;;18.94;59.76
7532;BME280;3807;49.030;8.714;2022-09-09T06:21:08;98965.84;;;18.98;59.34
7532;BME280;3807;49.030;8.714;2022-09-09T06:23:34;98968.25;;;18.77;60.01
7532;BME280;3807;49.030;8.714;2022-09-09T06:26:13;98959.34;;;18.81;59.79
7532;BME280;3807;49.030;8.714;2022-09-09T06:28:39;98968.78;;;18.93;59.90
7532;BME280;3807;49.030;8.714;2022-09-09T06:31:07;98964.87;;;18.88;59.71
7532;BME280;3807;49.030;8.714;2022-09-09T06:33:34;98957.69;;;18.80;59.99
7532;BME280;3807;49.030;8.714;2022-09-09T06:36:02;98965.53;;;19.14;59.07
7532;BME280;3807;49.030;8.714;2022-09-09T06:38:28;98970.94;;;19.22;58.96
7532;BME280;3807;49.030;8.714;2022-09-09T06:40:55;98962.13;;;19.24;58.22
7532;BME280;3807;49.030;8.714;2022-09-09T06:43:21;98968.38;;;19.22;58.56
7532;BME280;3807;49.030;8.714;2022-09-09T06:45:55;98974.34;;;19.11;58.72
7532;BME280;3807;49.030;8.714;2022-09-09T06:48:20;98969.53;;;19.18;59.36
7532;BME280;3807;49.030;8.714;2022-09-09T06:50:46;98973.63;;;19.20;59.77
7532;BME280;3807;49.030;8.714;2022-09-09T06:53:12;98965.06;;;19.09;59.33
7532;BME280;3807;49.030;8.714;2022-09-09T06:55:37;98965.66;;;19.23;59.63
7532;BME280;3807;49.030;8.714;2022-09-09T06:58:08;98964.16;;;19.32;58.41
7532;BME280;3807;49.030;8.714;2022-09-09T07:00:33;98970.72;;;19.25;58.61
7532;BME280;3807;49.030;8.714;2022-09-09T07:02:59;98971.91;;;19.32;58.83
7532;BME280;3807;49.030;8.714;2022-09-09T07:05:24;98961.00;;;19.28;58.82
7532;BME280;3807;49.030;8.714;2022-09-09T07:07:51;98979.31;;;19.37;58.49
7532;BME280;3807;49.030;8.714;2022-09-09T07:10:16;98970.00;;;19.23;59.66
7532;BME280;3807;49.030;8.714;2022-09-09T07:12:42;98973.19;;;19.38;59.90
7532;BME280;3807;49.030;8.714;2022-09-09T07:15:08;98969.34;;;19.43;58.05
7532;BME280;3807;49.030;8.714;2022-09-09T07:17:34;98973.78;;;19.30;59.40
7532;BME280;3807;49.030;8.714;2022-09-09T07:19:59;98979.44;;;19.35;59.47
7532;BME280;3807;49.030;8.714;2022-09-09T07:22:24;98974.13;;;19.37;58.40
7532;BME280;3807;49.030;8.714;2022-09-09T07:24:50;98973.19;;;19.38;58.01
7532;BME280;3807;49.030;8.714;2022-09-09T07:27:15;98966.63;;;19.45;58.16
7532;BME280;3807;49.030;8.714;2022-09-09T07:29:40;98963.22;;;19.44;58.93
7532;BME280;3807;49.030;8.714;2022-09-09T07:32:06;98960.78;;;19.43;58.95
7532;BME280;3807;49.030;8.714;2022-09-09T07:34:31;98964.63;;;19.37;59.35
7532;BME280;3807;49.030;8.714;2022-09-09T07:36:56;98971.78;;;19.45;58.64
7532;BME280;3807;49.030;8.714;2022-09-09T07:39:22;98969.69;;;19.50;57.86
7532;BME280;3807;49.030;8.714;2022-09-09T07:41:48;98968.75;;;19.51;58.65
7532;BME280;3807;49.030;8.714;2022-09-09T07:44:17;98978.72;;;19.56;60.21
7532;BME280;3807;49.030;8.714;2022-09-09T07:46:43;98984.00;;;19.54;58.01
7532;BME280;3807;49.030;8.714;2022-09-09T07:49:10;98983.19;;;19.54;58.02
7532;BME280;3807;49.030;8.714;2022-09-09T07:51:38;98978.97;;;19.52;59.91
7532;BME280;3807;49.030;8.714;2022-09-09T07:54:15;98983.53;;;19.49;60.30
7532;BME280;3807;49.030;8.714;2022-09-09T07:56:41;98973.31;;;19.36;59.50
7532;BME280;3807;49.030;8.714;2022-09-09T07:59:08;98971.31;;;19.40;60.85
7532;BME280;3807;49.030;8.714;2022-09-09T08:01:46;98972.97;;;19.41;60.85
7532;BME280;3807;49.030;8.714;2022-09-09T08:04:14;98978.84;;;19.54;60.87
7532;BME280;3807;49.030;8.714;2022-09-09T08:06:44;98984.34;;;19.38;62.05
7532;BME280;3807;49.030;8.714;2022-09-09T08:09:11;98983.28;;;19.52;59.27
7532;BME280;3807;49.030;8.714;2022-09-09T08:11:38;98983.09;;;19.66;59.15
7532;BME280;3807;49.030;8.714;2022-09-09T08:14:05;98983.94;;;19.67;59.57
7532;BME280;3807;49.030;8.714;2022-09-09T08:16:33;98982.84;;;19.58;59.95
7532;BME280;3807;49.030;8.714;2022-09-09T08:19:02;98981.56;;;19.52;60.83
7532;BME280;3807;49.030;8.714;2022-09-09T08:21:29;98972.16;;;19.40;60.78
7532;BME280;3807;49.030;8.714;2022-09-09T08:23:56;98978.50;;;19.47;59.81
7532;BME280;3807;49.030;8.714;2022-09-09T08:26:24;98978.72;;;19.56;61.32
7532;BME280;3807;49.030;8.714;2022-09-09T08:28:51;98969.81;;;19.60;59.64
7532;BME280;3807;49.030;8.714;2022-09-09T08:31:26;98973.91;;;19.40;60.89
7532;BME280;3807;49.030;8.714;2022-09-09T08:33:53;98977.66;;;19.58;60.16
7532;BME280;3807;49.030;8.714;2022-09-09T08:36:21;98979.31;;;19.59;59.68
7532;BME280;3807;49.030;8.714;2022-09-09T08:38:50;98978.13;;;19.52;59.58
7532;BME280;3807;49.030;8.714;2022-09-09T08:47:34;98991.94;;;19.75;59.16
7532;BME280;3807;49.030;8.714;2022-09-09T08:50:25;98991.94;;;19.64;60.20
7532;BME280;3807;49.030;8.714;2022-09-09T08:53:04;99002.13;;;19.65;60.00
7532;BME280;3807;49.030;8.714;2022-09-09T08:58:19;99006.00;;;19.60;60.99
7532;BME280;3807;49.030;8.714;2022-09-09T09:07:04;99004.97;;;19.16;63.83
7532;BME280;3807;49.030;8.714;2022-09-09T09:09:46;99004.44;;;19.57;62.74
7532;BME280;3807;49.030;8.714;2022-09-09T09:12:24;99007.41;;;19.52;62.71
7532;BME280;3807;49.030;8.714;2022-09-09T09:14:51;99005.03;;;19.49;62.54
7532;BME280;3807;49.030;8.714;2022-09-09T09:17:19;99010.75;;;19.42;64.03
7532;BME280;3807;49.030;8.714;2022-09-09T09:19:47;99012.66;;;19.51;63.09
7532;BME280;3807;49.030;8.714;2022-09-09T09:22:17;99010.19;;;19.49;63.21
7532;BME280;3807;49.030;8.714;2022-09-09T09:24:56;99018.19;;;19.46;64.95
7532;BME280;3807;49.030;8.714;2022-09-09T09:27:34;99009.84;;;19.43;64.19
7532;BME280;3807;49.030;8.714;2022-09-09T09:30:06;99006.00;;;19.60;64.79
7532;BME280;3807;49.030;8.714;2022-09-09T09:32:39;99006.25;;;19.68;63.00
7532;BME280;3807;49.030;8.714;2022-09-09T09:35:13;99003.91;;;19.65;64.42
7532;BME280;3807;49.030;8.714;2022-09-09T09:37:40;98996.81;;;19.56;64.44
7532;BME280;3807;49.030;8.714;2022-09-09T09:40:14;98995.44;;;19.63;64.59
7532;BME280;3807;49.030;8.714;2022-09-09T09:42:52;98995.19;;;19.66;64.06
7532;BME280;3807;49.030;8.714;2022-09-09T09:47:58;98999.22;;;19.81;63.39
7532;BME280;3807;49.030;8.714;2022-09-09T09:50:24;98991.44;;;19.70;63.94
7532;BME280;3807;49.030;8.714;2022-09-09T09:52:58;98982.31;;;19.77;63.26
7532;BME280;3807;49.030;8.714;2022-09-09T09:55:25;98988.16;;;20.02;62.65
7532;BME280;3807;49.030;8.714;2022-09-09T09:57:51;98990.00;;;20.11;62.24
7532;BME280;3807;49.030;8.714;2022-09-09T10:00:18;98989.91;;;19.90;62.79
7532;BME280;3807;49.030;8.714;2022-09-09T10:02:45;98990.72;;;19.90;62.85
7532;BME280;3807;49.030;8.714;2022-09-09T10:07:59;98995.06;;;20.12;62.19
7532;BME280;3807;49.030;8.714;2022-09-09T10:10:35;98985.06;;;20.08;62.22
7532;BME280;3807;49.030;8.714;2022-09-09T10:24:22;98990.62;;;20.46;61.13
7532;BME280;3807;49.030;8.714;2022-09-09T10:35:08;98987.13;;;20.48;60.40
7532;BME280;3807;49.030;8.714;2022-09-09T10:37:43;98982.06;;;20.46;60.23
7532;BME280;3807;49.030;8.714;2022-09-09T10:40:32;98976.19;;;20.55;59.98
7532;BME280;3807;49.030;8.714;2022-09-09T10:46:03;98977.59;;;20.80;58.76
7532;BME280;3807;49.030;8.714;2022-09-09T10:48:48;98986.59;;;20.97;57.75
7532;BME280;3807;49.030;8.714;2022-09-09T10:56:38;98972.91;;;21.27;56.88
7532;BME280;3807;49.030;8.714;2022-09-09T10:59:12;98978.06;;;21.27;56.76
7532;BME280;3807;49.030;8.714;2022-09-09T11:02:00;98987.44;;;21.39;56.13
7532;BME280;3807;49.030;8.714;2022-09-09T11:04:33;98995.13;;;21.51;56.11
7532;BME280;3807;49.030;8.714;2022-09-09T11:07:05;99005.47;;;21.51;55.98
7532;BME280;3807;49.030;8.714;2022-09-09T11:09:37;98995.81;;;21.53;56.10
7532;BME280;3807;49.030;8.714;2022-09-09T11:12:05;99007.72;;;21.55;56.18
7532;BME280;3807;49.030;8.714;2022-09-09T11:14:43;99012.06;;;21.55;55.80
7532;BME280;3807;49.030;8.714;2022-09-09T11:17:16;99013.72;;;21.86;54.86
7532;BME280;3807;49.030;8.714;2022-09-09T11:19:44;99002.37;;;21.87;54.68
7532;BME280;3807;49.030;8.714;2022-09-09T11:22:32;99003.41;;;22.06;53.46
7532;BME280;3807;49.030;8.714;2022-09-09T11:25:15;99009.94;;;22.00;53.53
7532;BME280;3807;49.030;8.714;2022-09-09T11:31:11;99004.69;;;21.81;53.47
7532;BME280;3807;49.030;8.714;2022-09-09T11:38:56;99001.81;;;22.15;54.13
7532;BME280;3807;49.030;8.714;2022-09-09T11:41:23;98997.38;;;22.05;54.78
7532;BME280;3807;49.030;8.714;2022-09-09T11:43:53;98992.69;;;22.20;53.64
7532;BME280;3807;49.030;8.714;2022-09-09T11:46:32;98985.88;;;22.29;54.53
7532;BME280;3807;49.030;8.714;2022-09-09T11:49:04;98974.00;;;22.26;53.58
7532;BME280;3807;49.030;8.714;2022-09-09T11:51:31;98980.53;;;22.30;53.20
7532;BME280;3807;49.030;8.714;2022-09-09T11:54:03;98973.19;;;22.45;54.04
7532;BME280;3807;49.030;8.714;2022-09-09T11:56:48;98970.06;;;22.51;53.05
7532;BME280;3807;49.030;8.714;2022-09-09T11:59:31;98965.84;;;22.60;52.47
7532;BME280;3807;49.030;8.714;2022-09-09T12:02:00;98955.31;;;22.81;52.95
7532;BME280;3807;49.030;8.714;2022-09-09T12:04:34;98956.53;;;22.77;53.21
7532;BME280;3807;49.030;8.714;2022-09-09T12:14:54;98942.53;;;23.26;50.25
7532;BME280;3807;49.030;8.714;2022-09-09T12:17:24;98942.91;;;23.32;50.50
7532;BME280;3807;49.030;8.714;2022-09-09T12:20:13;98936.63;;;23.34;51.29
7532;BME280;3807;49.030;8.714;2022-09-09T12:25:44;98946.31;;;23.79;49.07
7532;BME280;3807;49.030;8.714;2022-09-09T12:30:53;98946.12;;;23.90;50.49
7532;BME280;3807;49.030;8.714;2022-09-09T12:33:21;98939.56;;;23.86;49.82
7532;BME280;3807;49.030;8.714;2022-09-09T12:35:55;98934.81;;;23.82;49.46
7532;BME280;3807;49.030;8.714;2022-09-09T12:38:32;98926.66;;;24.12;48.83
7532;BME280;3807;49.030;8.714;2022-09-09T12:40:59;98926.66;;;24.30;48.25
7532;BME280;3807;49.030;8.714;2022-09-09T12:43:27;98922.03;;;24.52;49.22
7532;BME280;3807;49.030;8.714;2022-09-09T12:45:56;98918.81;;;24.40;47.85
7532;BME280;3807;49.030;8.714;2022-09-09T12:48:44;98927.75;;;24.55;48.61
7532;BME280;3807;49.030;8.714;2022-09-09T12:51:31;98922.34;;;24.75;48.17
7532;BME280;3807;49.030;8.714;2022-09-09T12:53:59;98928.56;;;24.74;47.49
7532;BME280;3807;49.030;8.714;2022-09-09T12:56:27;98930.84;;;25.03;46.97
7532;BME280;3807;49.030;8.714;2022-09-09T12:58:56;98927.34;;;24.68;47.53
7532;BME280;3807;49.030;8.714;2022-09-09T13:01:27;98927.31;;;24.86;48.09
7532;BME280;3807;49.030;8.714;2022-09-09T13:03:53;98931.47;;;24.53;48.41
7532;BME280;3807;49.030;8.714;2022-09-09T13:08:48;98931.44;;;24.70;48.11
7532;BME280;3807;49.030;8.714;2022-09-09T13:11:17;98927.59;;;24.57;47.20
7532;BME280;3807;49.030;8.714;2022-09-09T13:13:51;98926.25;;;24.70;47.45
7532;BME280;3807;49.030;8.714;2022-09-09T13:16:37;98932.47;;;24.78;47.96
7532;BME280;3807;49.030;8.714;2022-09-09T13:19:08;98934.00;;;24.62;47.97
7532;BME280;3807;49.030;8.714;2022-09-09T13:21:39;98925.78;;;24.21;48.03
7532;BME280;3807;49.030;8.714;2022-09-09T13:27:01;98937.84;;;24.76;45.46
7532;BME280;3807;49.030;8.714;2022-09-09T13:29:27;98941.41;;;24.75;45.68
7532;BME280;3807;49.030;8.714;2022-09-09T13:31:53;98936.88;;;25.03;47.13
7532;BME280;3807;49.030;8.714;2022-09-09T13:34:29;98939.41;;;25.13;46.02
7532;BME280;3807;49.030;8.714;2022-09-09T13:36:59;98953.50;;;25.02;44.11
7532;BME280;3807;49.030;8.714;2022-09-09T13:39:32;98949.59;;;25.06;45.20
7532;BME280;3807;49.030;8.714;2022-09-09T13:41:58;98942.28;;;25.28;45.56
7532;BME280;3807;49.030;8.714;2022-09-09T13:44:31;98943.47;;;25.41;44.80
7532;BME280;3807;49.030;8.714;2022-09-09T13:47:20;98943.38;;;25.51;46.17
7532;BME280;3807;49.030;8.714;2022-09-09T13:49:46;98934.97;;;25.65;45.19
7532;BME280;3807;49.030;8.714;2022-09-09T13:52:14;98926.44;;;25.55;45.96
7532;BME280;3807;49.030;8.714;2022-09-09T13:54:42;98918.41;;;25.40;46.89
7532;BME280;3807;49.030;8.714;2022-09-09T13:57:22;98918.37;;;25.32;45.88
7532;BME280;3807;49.030;8.714;2022-09-09T13:59:54;98916.25;;;25.36;45.78
7532;BME280;3807;49.030;8.714;2022-09-09T14:02:41;98903.94;;;25.46;45.39
7532;BME280;3807;49.030;8.714;2022-09-09T14:05:07;98911.66;;;25.64;44.85
7532;BME280;3807;49.030;8.714;2022-09-09T14:07:32;98919.47;;;25.56;44.84
7532;BME280;3807;49.030;8.714;2022-09-09T14:10:00;98911.66;;;25.64;45.78
7532;BME280;3807;49.030;8.714;2022-09-09T14:12:27;98909.53;;;25.67;45.42
7532;BME280;3807;49.030;8.714;2022-09-09T14:14:55;98905.75;;;25.62;45.28
7532;BME280;3807;49.030;8.714;2022-09-09T14:17:20;98902.84;;;25.23;45.72
7532;BME280;3807;49.030;8.714;2022-09-09T14:19:47;98895.34;;;25.62;45.50
7532;BME280;3807;49.030;8.714;2022-09-09T14:22:14;98896.53;;;25.76;45.43
7532;BME280;3807;49.030;8.714;2022-09-09T14:24:41;98903.91;;;25.80;45.54
7532;BME280;3807;49.030;8.714;2022-09-09T14:27:08;98911.16;;;25.60;45.40
7532;BME280;3807;49.030;8.714;2022-09-09T14:29:36;98921.47;;;25.78;45.43
7532;BME280;3807;49.030;8.714;2022-09-09T14:32:02;98914.13;;;25.74;45.73
7532;BME280;3807;49.030;8.714;2022-09-09T14:34:28;98906.19;;;25.83;45.04
7532;BME280;3807;49.030;8.714;2022-09-09T14:36:53;98910.91;;;25.80;45.70
7532;BME280;3807;49.030;8.714;2022-09-09T14:39:19;98917.47;;;25.84;45.68
7532;BME280;3807;49.030;8.714;2022-09-09T14:41:44;98933.16;;;25.66;45.83
7532;BME280;3807;49.030;8.714;2022-09-09T14:44:10;98910.47;;;25.50;45.09
7532;BME280;3807;49.030;8.714;2022-09-09T14:46:36;98916.00;;;25.55;44.10
7532;BME280;3807;49.030;8.714;2022-09-09T14:49:01;98915.06;;;25.64;44.71
7532;BME280;3807;49.030;8.714;2022-09-09T14:51:27;98912.47;;;25.64;44.83
7532;BME280;3807;49.030;8.714;2022-09-09T14:53:59;98912.56;;;25.81;44.39
7532;BME280;3807;49.030;8.714;2022-09-09T14:56:27;98909.38;;;25.69;43.67
7532;BME280;3807;49.030;8.714;2022-09-09T14:58:54;98912.78;;;25.61;44.43
7532;BME280;3807;49.030;8.714;2022-09-09T15:01:20;98913.56;;;25.88;43.63
7532;BME280;3807;49.030;8.714;2022-09-09T15:04:00;98923.63;;;25.83;44.09
7532;BME280;3807;49.030;8.714;2022-09-09T15:06:30;98924.63;;;25.82;44.12
7532;BME280;3807;49.030;8.714;2022-09-09T15:08:58;98928.72;;;26.01;44.83
7532;BME280;3807;49.030;8.714;2022-09-09T15:11:27;98923.38;;;26.02;45.13
7532;BME280;3807;49.030;8.714;2022-09-09T15:13:53;98926.00;;;26.10;44.70
7532;BME280;3807;49.030;8.714;2022-09-09T15:16:20;98929.91;;;26.14;45.24
7532;BME280;3807;49.030;8.714;2022-09-09T15:18:46;98926.63;;;26.04;45.07